createdAt,value
2023-05-07T00:01:58.370Z,26.23
2023-05-07T00:04:36.967Z,26.45
2023-05-07T00:07:09.126Z,27.38
2023-05-07T00:09:41.555Z,28.13
2023-05-07T00:12:13.611Z,29.85
2023-05-07T00:14:46.799Z,33.40
2023-05-07T00:17:19.119Z,29.90
2023-05-07T00:19:51.328Z,31.55
2023-05-07T00:22:23.569Z,23.63
2023-05-07T00:24:55.794Z,26.17
2023-05-07T00:27:27.861Z,28.17
2023-05-07T00:29:59.962Z,30.58
2023-05-07T00:32:32.127Z,24.27
2023-05-07T00:35:06.041Z,27.25
2023-05-07T00:37:38.220Z,26.98
2023-05-07T00:40:11.079Z,25.52
2023-05-07T00:42:48.360Z,24.95
2023-05-07T00:45:20.494Z,25.95
2023-05-07T00:47:52.817Z,26.30
2023-05-07T00:50:25.500Z,23.35
2023-05-07T00:52:58.339Z,23.88
2023-05-07T00:55:30.730Z,24.05
2023-05-07T00:58:02.888Z,24.98
2023-05-07T01:00:35.805Z,24.90
2023-05-07T01:03:08.035Z,25.48
2023-05-07T01:05:42.299Z,25.23
2023-05-07T01:08:16.985Z,29.38
2023-05-07T01:10:49.577Z,25.55
2023-05-07T01:13:22.323Z,29.45
2023-05-07T01:15:54.810Z,26.27
2023-05-07T01:18:27.808Z,25.02
2023-05-07T01:21:01.385Z,24.55
2023-05-07T01:23:35.034Z,28.08
2023-05-07T01:26:07.517Z,23.30
2023-05-07T01:28:40.335Z,29.15
2023-05-07T01:31:15.435Z,29.20
2023-05-07T01:33:51.357Z,28.55
2023-05-07T01:36:27.220Z,27.40
2023-05-07T01:39:00.428Z,28.52
2023-05-07T01:41:32.858Z,32.08
2023-05-07T01:44:05.959Z,30.02
2023-05-07T01:46:38.219Z,29.50
2023-05-07T01:49:11.451Z,27.98
2023-05-07T01:51:44.732Z,27.73
2023-05-07T01:54:17.735Z,29.23
2023-05-07T01:56:50.194Z,24.58
2023-05-07T01:59:22.262Z,27.98
2023-05-07T02:01:54.547Z,30.80
2023-05-07T02:04:26.704Z,27.33
2023-05-07T02:06:58.847Z,27.38
2023-05-07T02:09:31.248Z,24.83
2023-05-07T02:12:03.467Z,24.65
2023-05-07T02:14:35.686Z,27.67
2023-05-07T02:17:09.200Z,29.73
2023-05-07T02:19:41.287Z,29.80
2023-05-07T02:22:13.465Z,25.38
2023-05-07T02:24:45.804Z,29.95
2023-05-07T02:27:17.943Z,32.47
2023-05-07T02:29:50.098Z,27.75
2023-05-07T02:32:23.323Z,27.23
2023-05-07T02:34:56.523Z,33.08
2023-05-07T02:37:28.606Z,27.20
2023-05-07T02:40:00.720Z,31.88
2023-05-07T02:42:32.875Z,27.73
2023-05-07T02:45:06.082Z,26.65
2023-05-07T02:47:38.281Z,23.45
2023-05-07T02:50:11.114Z,27.23
2023-05-07T02:52:43.588Z,28.42
2023-05-07T02:55:15.992Z,28.25
2023-05-07T02:57:48.320Z,28.08
2023-05-07T03:00:21.475Z,31.13
2023-05-07T03:02:53.683Z,29.77
2023-05-07T03:05:26.889Z,27.08
2023-05-07T03:07:59.047Z,33.72
2023-05-07T03:10:31.871Z,31.20
2023-05-07T03:13:04.834Z,24.73
2023-05-07T03:15:37.033Z,29.38
2023-05-07T03:18:09.390Z,29.08
2023-05-07T03:20:41.744Z,31.65
2023-05-07T03:23:14.019Z,32.00
2023-05-07T03:25:46.263Z,28.60
2023-05-07T03:28:18.464Z,31.08
2023-05-07T03:30:50.715Z,27.15
2023-05-07T03:33:23.304Z,30.50
2023-05-07T03:35:55.862Z,27.27
2023-05-07T03:38:28.019Z,27.25
2023-05-07T03:41:00.130Z,25.83
2023-05-07T03:43:32.308Z,26.40
2023-05-07T03:46:04.457Z,29.02
2023-05-07T03:48:36.576Z,28.70
2023-05-07T03:51:08.676Z,23.63
2023-05-07T03:53:40.742Z,27.05
2023-05-07T03:56:12.943Z,24.48
2023-05-07T03:58:45.971Z,24.85
2023-05-07T04:01:18.199Z,22.88
2023-05-07T04:03:50.408Z,26.73
2023-05-07T04:06:22.736Z,27.42
2023-05-07T04:08:54.912Z,26.13
2023-05-07T04:11:27.863Z,26.10
2023-05-07T04:14:00.081Z,26.48
2023-05-07T04:16:32.365Z,23.20
2023-05-07T04:19:04.509Z,22.95
2023-05-07T04:21:40.148Z,21.35
2023-05-07T04:24:12.210Z,22.25
2023-05-07T04:26:44.376Z,22.27
2023-05-07T04:29:16.524Z,23.20
2023-05-07T04:31:48.748Z,23.83
2023-05-07T04:34:22.368Z,27.15
2023-05-07T04:36:54.546Z,25.05
2023-05-07T04:39:26.640Z,23.38
2023-05-07T04:41:58.738Z,21.75
2023-05-07T04:44:32.389Z,20.38
2023-05-07T04:47:04.642Z,21.63
2023-05-07T04:49:38.134Z,18.85
2023-05-07T04:52:10.312Z,25.90
2023-05-07T04:54:42.461Z,25.85
2023-05-07T04:57:15.254Z,22.10
2023-05-07T04:59:47.382Z,20.15
2023-05-07T05:02:20.833Z,21.85
2023-05-07T05:13:18.068Z,18.50
2023-05-07T05:36:29.959Z,19.23
2023-05-07T07:53:10.062Z,15.55
2023-05-07T09:01:46.136Z,11.77
2023-05-07T09:44:17.701Z,14.15
2023-05-07T09:47:58.410Z,12.23
2023-05-07T10:22:08.316Z,10.30
2023-05-07T10:29:42.799Z,20.90
2023-05-07T10:48:44.879Z,11.05
2023-05-07T11:07:57.269Z,13.50
2023-05-07T11:51:41.216Z,11.85
2023-05-07T12:09:45.071Z,9.30
2023-05-07T12:28:44.566Z,11.63
2023-05-07T12:31:27.540Z,13.05
2023-05-07T12:35:27.947Z,10.45
2023-05-07T12:42:49.406Z,9.57
2023-05-07T12:45:24.316Z,13.50
2023-05-07T12:48:46.258Z,10.27
2023-05-07T12:51:41.126Z,9.32
2023-05-07T12:58:08.911Z,10.32
2023-05-07T13:04:16.350Z,9.77
2023-05-07T13:06:49.231Z,9.40
2023-05-07T13:12:55.679Z,8.70
2023-05-07T13:16:22.520Z,7.97
2023-05-07T13:19:13.837Z,6.47
2023-05-07T13:22:01.507Z,6.32
2023-05-07T13:28:06.756Z,7.75
2023-05-07T13:38:44.829Z,5.70
2023-05-07T13:42:14.398Z,7.25
2023-05-07T13:45:23.947Z,11.35
2023-05-07T13:52:33.385Z,4.82
2023-05-07T14:03:22.237Z,5.22
2023-05-07T14:06:14.450Z,4.45
2023-05-07T14:09:25.262Z,6.03
2023-05-07T14:15:19.767Z,6.13
2023-05-07T14:17:52.867Z,10.23
2023-05-07T14:20:25.376Z,6.85
2023-05-07T14:22:59.611Z,6.88
2023-05-07T14:25:41.044Z,5.18
2023-05-07T14:28:30.779Z,5.90
2023-05-07T14:31:06.006Z,9.05
2023-05-07T14:33:42.476Z,6.32
2023-05-07T14:36:17.035Z,8.80
2023-05-07T14:38:52.478Z,8.13
2023-05-07T14:41:32.646Z,5.95
2023-05-07T14:47:02.256Z,7.53
2023-05-07T14:49:41.377Z,8.32
2023-05-07T14:52:24.841Z,8.52
2023-05-07T14:55:00.923Z,9.15
2023-05-07T14:57:38.831Z,11.32
2023-05-07T15:00:17.691Z,9.38
2023-05-07T15:02:50.931Z,9.15
2023-05-07T15:05:33.617Z,9.70
2023-05-07T15:08:19.099Z,9.13
2023-05-07T15:11:26.319Z,10.15
2023-05-07T15:14:06.970Z,7.90
2023-05-07T15:16:44.703Z,7.47
2023-05-07T15:19:43.114Z,9.40
2023-05-07T15:22:34.661Z,9.95
2023-05-07T15:25:13.962Z,7.38
2023-05-07T15:27:52.748Z,6.97
2023-05-07T15:30:28.123Z,7.82
2023-05-07T15:33:05.777Z,7.68
2023-05-07T15:35:43.794Z,16.52
2023-05-07T16:12:48.358Z,9.50
2023-05-07T16:15:20.872Z,13.32
2023-05-07T16:23:02.555Z,10.25
2023-05-07T16:47:17.437Z,10.93
2023-05-07T16:50:19.409Z,6.38
2023-05-07T16:53:51.560Z,9.65
2023-05-07T16:58:02.976Z,10.27
2023-05-07T17:03:29.931Z,10.95
2023-05-07T17:06:07.859Z,9.10
2023-05-07T17:08:46.473Z,7.22
2023-05-07T17:12:20.773Z,7.53
2023-05-07T17:20:03.140Z,8.13
2023-05-07T17:30:31.203Z,7.53
2023-05-07T17:37:26.486Z,7.32
2023-05-07T17:39:58.762Z,16.20
2023-05-07T17:42:32.971Z,8.20
2023-05-07T17:45:06.681Z,14.48
2023-05-07T17:47:38.890Z,8.02
2023-05-07T17:50:12.472Z,10.35
2023-05-07T17:52:44.909Z,10.63
2023-05-07T17:55:42.058Z,9.75
2023-05-07T17:58:41.514Z,8.18
2023-05-07T18:01:58.901Z,8.88
2023-05-07T18:09:28.367Z,13.32
2023-05-07T18:12:01.507Z,10.23
2023-05-07T18:14:39.918Z,8.02
2023-05-07T18:17:22.932Z,8.88
2023-05-07T18:19:55.508Z,8.23
2023-05-07T18:22:28.106Z,12.93
2023-05-07T18:25:00.501Z,9.48
2023-05-07T18:27:36.414Z,8.88
2023-05-07T18:30:09.846Z,7.03
2023-05-07T18:32:48.376Z,7.05
2023-05-07T18:35:20.664Z,10.32
2023-05-07T18:37:54.103Z,11.52
2023-05-07T18:40:27.422Z,9.18
2023-05-07T18:43:07.072Z,15.88
2023-05-07T18:45:39.852Z,11.00
2023-05-07T18:48:17.393Z,7.93
2023-05-07T18:50:58.794Z,8.30
2023-05-07T18:53:33.738Z,10.82
2023-05-07T18:56:07.859Z,6.60
2023-05-07T18:58:40.188Z,10.73
2023-05-07T19:01:12.629Z,8.43
2023-05-07T19:03:44.846Z,7.85
2023-05-07T19:06:17.361Z,6.40
2023-05-07T19:08:52.626Z,9.35
2023-05-07T19:11:30.842Z,14.32
2023-05-07T19:14:04.966Z,8.50
2023-05-07T19:16:37.668Z,8.95
2023-05-07T19:19:10.478Z,10.25
2023-05-07T19:21:45.259Z,6.90
2023-05-07T19:24:20.628Z,9.45
2023-05-07T19:26:56.255Z,9.80
2023-05-07T19:29:28.822Z,6.60
2023-05-07T19:32:02.070Z,6.30
2023-05-07T19:34:34.443Z,8.88
2023-05-07T19:37:06.906Z,6.85
2023-05-07T19:39:39.283Z,12.20
2023-05-07T19:42:11.981Z,7.70
2023-05-07T19:44:44.663Z,7.68
2023-05-07T19:47:19.800Z,8.40
2023-05-07T19:49:56.726Z,10.70
2023-05-07T19:52:28.929Z,9.35
2023-05-07T19:55:07.267Z,9.20
2023-05-07T19:57:39.590Z,8.77
2023-05-07T20:00:13.308Z,8.75
2023-05-07T20:02:46.978Z,14.15
2023-05-07T20:05:19.516Z,8.77
2023-05-07T20:07:52.195Z,13.38
2023-05-07T20:10:24.721Z,13.23
2023-05-07T20:12:57.356Z,10.43
2023-05-07T20:15:29.791Z,17.67
2023-05-07T20:18:02.121Z,12.02
2023-05-07T20:20:34.690Z,11.15
2023-05-07T20:23:06.971Z,7.80
2023-05-07T20:25:45.086Z,9.93
2023-05-07T20:28:17.608Z,9.60
2023-05-07T20:30:50.154Z,10.15
2023-05-07T20:33:22.563Z,9.57
2023-05-07T20:35:55.340Z,9.68
2023-05-07T20:38:34.123Z,10.80
2023-05-07T20:41:12.988Z,9.77
2023-05-07T20:43:45.282Z,11.45
2023-05-07T20:46:17.575Z,9.13
2023-05-07T20:48:50.257Z,12.70
2023-05-07T20:51:22.763Z,12.77
2023-05-07T20:53:55.338Z,6.95
2023-05-07T20:56:30.915Z,16.75
2023-05-07T20:59:03.219Z,9.18
2023-05-07T21:01:38.337Z,7.90
2023-05-07T21:04:10.883Z,10.45
2023-05-07T21:06:43.959Z,9.35
2023-05-07T21:09:16.315Z,7.65
2023-05-07T21:11:48.912Z,13.15
2023-05-07T21:14:23.920Z,10.85
2023-05-07T21:16:56.516Z,10.30
2023-05-07T21:19:29.061Z,10.18
2023-05-07T21:22:01.571Z,10.18
2023-05-07T21:24:36.893Z,12.07
2023-05-07T21:27:09.408Z,13.43
2023-05-07T21:29:41.891Z,8.63
2023-05-07T21:32:14.397Z,10.52
2023-05-07T21:34:50.734Z,10.48
2023-05-07T21:37:23.541Z,8.50
2023-05-07T21:39:55.855Z,11.30
2023-05-07T21:42:31.903Z,11.73
2023-05-07T21:45:07.654Z,11.70
2023-05-07T21:47:42.959Z,9.40
2023-05-07T21:50:15.697Z,9.85
2023-05-07T21:52:51.986Z,9.70
2023-05-07T21:55:24.305Z,8.52
2023-05-07T21:58:04.893Z,8.38
2023-05-07T22:00:38.513Z,10.95
2023-05-07T22:03:11.194Z,10.02
2023-05-07T22:05:43.610Z,9.23
2023-05-07T22:08:16.155Z,8.50
2023-05-07T22:10:48.499Z,9.90
2023-05-07T22:13:24.031Z,9.65
2023-05-07T22:15:59.222Z,13.40
2023-05-07T22:18:31.658Z,9.27
2023-05-07T22:21:04.102Z,10.52
2023-05-07T22:23:36.408Z,11.65
2023-05-07T22:26:13.656Z,10.65
2023-05-07T22:28:46.185Z,10.07
2023-05-07T22:31:18.481Z,10.43
2023-05-07T22:33:50.797Z,10.02
2023-05-07T22:36:23.008Z,10.65
2023-05-07T22:38:55.521Z,11.80
2023-05-07T22:41:28.203Z,12.48
2023-05-07T22:44:00.959Z,12.65
2023-05-07T22:46:36.471Z,8.68
2023-05-07T22:49:11.863Z,10.57
2023-05-07T22:51:44.309Z,9.63
2023-05-07T22:54:16.823Z,11.32
2023-05-07T22:56:49.346Z,9.93
2023-05-07T22:59:22.035Z,10.23
2023-05-07T23:01:58.034Z,10.43
2023-05-07T23:04:30.307Z,9.15
2023-05-07T23:07:02.663Z,10.60
2023-05-07T23:09:45.903Z,9.48
2023-05-07T23:16:08.335Z,13.02
2023-05-07T23:23:14.390Z,8.82
2023-05-07T23:30:01.272Z,10.63
2023-05-07T23:41:47.917Z,16.15
